Disclaimer

Please do not use the information listed here in-flight or in-navigation, as they are not provided to us by the airports but are provided by volunteers, so they might be outdated.

Search


Regions


Airport information page

Radio informations:
Tower (TWR) - 123.2 MHz
Ground (GND) - 121.8 MHz
Approach (APP) - 119.7 MHz

Airport informations:
Latitude: 43° 45' 26.80" N
Longitude: 004° 24' 58.85" E
Elevation: 309 feet - 94 meters
Operating hours: Remarks
Operating agency: Military
Timezone: UTC+1(+2DT) - Last Sunday in March to last Sunday in October
Fuel: Jet A1+, Jet A1 with icing inhibitor.

JP-8, SemiKeroscene MIL Spec T-83133, without icing inhibitor

100/130 MIL Spec, low lead, aviation gasoline (BLUE)

Runway information:
18/36 - 8005 x 148 feet< - >2440 x 45 meters

Recent METARs:
LFTW 201400Z AUTO 04004KT 9999 BKN036 OVC054 09/05 Q1002 TEMPO RA OVC010 SCT030TCU
LFTW 201430Z AUTO 06004KT 9999 SCT011 BKN033 BKN039 09/06 Q1002 NOSIG
LFTW 201500Z AUTO 04004KT 9999 OVC011 09/06 Q1002 BECMG BKN040

Airport on the map: